»·PEaware :: N2877B L71-KSMO

N2877B :: L71-KSMO

FLIGHT INFORMATION

Flight Status: Arrived
Operator: Privately registered:
United States
More flights under this callsign
Pilot: Reece H. (589)
Aircraft: PIPER PA-28 CHEROKEE ARCHER
(P28A)
More flights by this aircraft type
Origin: L71 California City Mun
United States
Destination: KSMO Santa Monica Mun
United States
More flights between these airports :: More routes between these airports
Route: ODP LHS KIMMO2
File this flight plan on PilotEdge
Remarks:
Altitude:
(Current/Filed)
9,000ft
Speed:
(Current/Filed)
110kts
Departed: 04-Feb-13 03:37 PM
Arrived: 04-Feb-13 04:42 PM
Distance/Time
Traveled:
71nm/1:05
Distance/Time
To Go:
Arrived

Flight Plot

Page will automatically refresh every two minutes.


Map Options




Map Legend


Flown Route
Filed Route
Departure Airport
Arrival Airport
Navaid (VOR, NDB)
Fix

Horizontal Profiles

Position Reports

Time Latitude Longitude Heading Altitude Ground
Speed
04-Feb-13 15:23 35.149996 -118.015167 168 2457ft 0kts
04-Feb-13 15:24 35.149996 -118.015167 168 2457ft 0kts
04-Feb-13 15:25 35.149996 -118.015167 168 2457ft 0kts
04-Feb-13 15:26 35.149996 -118.015167 168 2457ft 0kts
04-Feb-13 15:27 35.149996 -118.015167 168 2457ft 0kts
04-Feb-13 15:28 35.149995 -118.015167 168 2457ft 0kts
04-Feb-13 15:29 35.149992 -118.015166 168 2457ft 0kts
04-Feb-13 15:30 35.149988 -118.015165 168 2457ft 0kts
04-Feb-13 15:31 35.149985 -118.015164 168 2457ft 0kts
04-Feb-13 15:32 35.150433 -118.015413 342 2457ft 5kts
04-Feb-13 15:33 35.150194 -118.018776 254 2457ft 13kts
04-Feb-13 15:34 35.149400 -118.022410 254 2457ft 9kts
04-Feb-13 15:35 35.149303 -118.023832 343 2457ft 0kts
04-Feb-13 15:36 35.149305 -118.023832 343 2457ft 0kts
04-Feb-13 15:37 35.149748 -118.023741 63 2457ft 10kts
04-Feb-13 15:38 35.153464 -118.003454 82 2753ft 77kts
04-Feb-13 15:39 35.158497 -117.977243 66 3320ft 81kts
04-Feb-13 15:40 35.164365 -117.951904 78 3905ft 74kts
04-Feb-13 15:41 35.170024 -117.928396 70 4422ft 72kts
04-Feb-13 15:42 35.189280 -117.917176 21 4864ft 82kts
04-Feb-13 15:43 35.211334 -117.906007 25 5322ft 88kts
04-Feb-13 15:44 35.234354 -117.894267 26 5795ft 89kts
04-Feb-13 15:45 35.257318 -117.882657 23 6253ft 88kts
04-Feb-13 15:46 35.279662 -117.877466 308 6650ft 80kts
04-Feb-13 15:47 35.287558 -117.900427 287 6983ft 81kts
04-Feb-13 15:48 35.296573 -117.926879 291 7289ft 85kts
04-Feb-13 15:49 35.305687 -117.953736 299 7657ft 81kts
04-Feb-13 15:50 35.314541 -117.979515 299 7968ft 83kts
04-Feb-13 15:51 35.323410 -118.005662 299 8265ft 83kts
04-Feb-13 15:52 35.319788 -118.029169 198 8522ft 84kts
04-Feb-13 15:53 35.300782 -118.041977 202 8764ft 82kts
04-Feb-13 15:54 35.280488 -118.056478 209 8235ft 98kts
04-Feb-13 15:55 35.258249 -118.073395 213 8538ft 91kts
04-Feb-13 15:56 35.237388 -118.090864 203 8789ft 91kts
04-Feb-13 15:57 35.214795 -118.105826 200 9023ft 94kts
04-Feb-13 15:58 35.187947 -118.121635 207 9016ft 118kts
04-Feb-13 15:59 35.158492 -118.142450 208 9016ft 124kts
04-Feb-13 16:00 35.128267 -118.163720 207 9005ft 126kts
04-Feb-13 16:01 35.097855 -118.185068 207 9005ft 126kts
04-Feb-13 16:02 35.067414 -118.206414 207 9005ft 126kts
04-Feb-13 16:03 35.036856 -118.227823 207 9007ft 126kts
04-Feb-13 16:04 35.006393 -118.249145 207 9008ft 126kts
04-Feb-13 16:05 34.979136 -118.275969 220 9009ft 125kts
04-Feb-13 16:06 34.952529 -118.303108 220 9002ft 124kts
04-Feb-13 16:07 34.926196 -118.329962 220 9003ft 123kts
04-Feb-13 16:08 34.899891 -118.356743 220 9003ft 122kts
04-Feb-13 16:09 34.875197 -118.381925 217 9029ft 110kts
04-Feb-13 16:10 34.852053 -118.405419 217 9032ft 107kts
04-Feb-13 16:11 34.829307 -118.428528 217 9033ft 106kts
04-Feb-13 16:12 34.806605 -118.451581 217 9033ft 106kts
04-Feb-13 16:13 34.783656 -118.474843 220 9026ft 107kts
04-Feb-13 16:14 34.760658 -118.498172 220 9024ft 108kts
04-Feb-13 16:15 34.737510 -118.521626 220 9025ft 108kts
04-Feb-13 16:16 34.714409 -118.545029 218 9025ft 108kts
04-Feb-13 16:17 34.691267 -118.568441 216 9032ft 109kts
04-Feb-13 16:18 34.664699 -118.565988 153 9038ft 107kts
04-Feb-13 16:19 34.637557 -118.550109 154 9029ft 108kts
04-Feb-13 16:20 34.610315 -118.534167 152 9002ft 108kts
04-Feb-13 16:21 34.583284 -118.518321 152 9005ft 107kts
04-Feb-13 16:22 34.556399 -118.502581 152 9008ft 107kts
04-Feb-13 16:23 34.529483 -118.486830 152 9010ft 107kts
04-Feb-13 16:24 34.502489 -118.471058 152 9011ft 107kts
04-Feb-13 16:25 34.475533 -118.455314 153 9003ft 107kts
04-Feb-13 16:26 34.448426 -118.439454 157 8981ft 111kts
04-Feb-13 16:27 34.419479 -118.422608 157 8951ft 117kts
04-Feb-13 16:28 34.388310 -118.404593 150 8486ft 126kts
04-Feb-13 16:29 34.357746 -118.386728 151 7771ft 119kts
04-Feb-13 16:30 34.327815 -118.369276 151 7168ft 121kts
04-Feb-13 16:31 34.294680 -118.355918 162 6621ft 128kts
04-Feb-13 16:32 34.260025 -118.345058 162 6027ft 128kts
04-Feb-13 16:33 34.225112 -118.334030 162 5427ft 130kts
04-Feb-13 16:34 34.199261 -118.306370 122 4840ft 129kts
04-Feb-13 16:35 34.174495 -118.276452 179 4259ft 130kts
04-Feb-13 16:36 34.142515 -118.285803 222 4191ft 108kts
04-Feb-13 16:37 34.121666 -118.313907 226 3792ft 119kts
04-Feb-13 16:38 34.098850 -118.343207 228 3099ft 118kts
04-Feb-13 16:39 34.076867 -118.371381 224 2482ft 114kts
04-Feb-13 16:40 34.057288 -118.400264 229 1780ft 102kts
04-Feb-13 16:41 34.038906 -118.423967 222 964ft 91kts
04-Feb-13 16:42 34.024588 -118.440971 222 374ft 60kts
04-Feb-13 16:43 34.015774 -118.451353 224 178ft 27kts
04-Feb-13 16:44 34.014149 -118.454333 42 178ft 5kts
04-Feb-13 16:45 34.017241 -118.450746 43 178ft 7kts
04-Feb-13 16:46 34.018061 -118.449812 43 178ft 0kts
04-Feb-13 16:47 34.019101 -118.450144 313 178ft 0kts
04-Feb-13 16:48 34.019102 -118.450145 313 178ft 0kts
04-Feb-13 16:49 34.019102 -118.450146 313 178ft 0kts

Navigation Log

Ident Type
1. L71 Airport
2. LHS Navaid
3. SAUGS Fix
4. KIMMO Fix
5. DARTS Fix
6. PURMS Fix
7. KSMO Airport